Time;durP1;ratioP1;P1;durP2;ratioP2;P2;SDS_P1;SDS_P2;PMS_P1;PMS_P2;Temp;Humidity;BMP_temperature;BMP_pressure;BME280_temperature;BME280_humidity;BME280_pressure;Samples;Min_cycle;Max_cycle;Signal;HPM_P1;HPM_P2
2021/03/23 00:01:49;;;;;;;14.73;7.35;;;7.20;99.90;;;;;;5084917;28;20237;-84
2021/03/23 00:04:16;;;;;;;12.32;7.28;;;7.20;99.90;;;;;;5077247;28;20331;-84
2021/03/23 00:06:42;;;;;;;16.50;8.52;;;7.30;99.90;;;;;;5080162;28;20222;-82
2021/03/23 00:09:08;;;;;;;15.65;7.70;;;7.00;99.90;;;;;;5089783;28;20311;-82
2021/03/23 00:11:37;;;;;;;13.77;8.50;;;7.20;99.90;;;;;;5090575;28;20818;-83
2021/03/23 00:14:07;;;;;;;13.00;7.80;;;7.00;99.90;;;;;;5079047;28;20198;-81
2021/03/23 00:16:35;;;;;;;17.50;9.48;;;7.10;99.90;;;;;;5077132;28;20230;-83
2021/03/23 00:19:02;;;;;;;14.07;7.60;;;7.30;99.90;;;;;;5077220;28;20770;-82
2021/03/23 00:21:29;;;;;;;15.45;9.50;;;7.10;99.90;;;;;;5076615;28;20660;-81
2021/03/23 00:23:56;;;;;;;16.50;8.57;;;7.10;99.90;;;;;;5072011;28;20230;-83
2021/03/23 00:26:23;;;;;;;16.70;9.27;;;7.10;99.90;;;;;;5083912;28;20295;-82
2021/03/23 00:28:52;;;;;;;15.77;6.75;;;7.10;99.90;;;;;;5079761;28;20270;-82
2021/03/23 00:31:22;;;;;;;15.90;8.60;;;7.10;99.90;;;;;;5091578;28;20313;-79
2021/03/23 00:33:48;;;;;;;11.90;7.40;;;7.10;99.90;;;;;;5092167;28;20309;-79
2021/03/23 00:36:17;;;;;;;17.33;9.15;;;7.30;99.90;;;;;;5079736;28;20251;-84
2021/03/23 00:38:44;;;;;;;16.20;8.38;;;7.30;99.90;;;;;;5076193;28;20624;-83
2021/03/23 00:41:11;;;;;;;13.85;8.05;;;7.20;99.90;;;;;;5076995;28;20212;-82
2021/03/23 00:43:39;;;;;;;15.35;9.57;;;7.30;99.90;;;;;;5073355;28;20209;-83
2021/03/23 00:46:05;;;;;;;16.85;8.57;;;7.30;99.90;;;;;;5055536;28;20211;-85
2021/03/23 00:48:33;;;;;;;19.00;10.10;;;7.50;99.90;;;;;;5062773;28;20348;-84
2021/03/23 00:51:00;;;;;;;18.05;8.85;;;7.50;99.90;;;;;;5077852;28;20269;-81
2021/03/23 00:53:26;;;;;;;17.15;9.65;;;7.40;99.90;;;;;;5067104;28;20207;-84
2021/03/23 00:55:53;;;;;;;16.10;9.65;;;7.30;99.90;;;;;;5061065;28;20693;-83
2021/03/23 00:58:19;;;;;;;21.17;10.10;;;7.30;99.90;;;;;;5058224;28;20230;-83
2021/03/23 01:00:46;;;;;;;18.38;10.18;;;7.20;99.90;;;;;;5075014;28;20213;-84
2021/03/23 01:03:12;;;;;;;14.02;8.80;;;7.20;99.90;;;;;;5075743;28;20202;-84
2021/03/23 01:05:39;;;;;;;18.85;10.00;;;7.10;99.90;;;;;;5075364;28;20210;-84
2021/03/23 01:08:07;;;;;;;18.92;9.93;;;6.90;99.90;;;;;;5075785;28;20599;-86
2021/03/23 01:10:34;;;;;;;18.92;11.13;;;7.10;99.90;;;;;;5075705;28;20218;-86
2021/03/23 01:13:01;;;;;;;18.38;9.52;;;7.10;99.90;;;;;;5069773;28;20600;-86
2021/03/23 01:15:30;;;;;;;19.08;8.63;;;7.10;99.90;;;;;;5076423;28;20328;-84
2021/03/23 01:17:57;;;;;;;18.55;10.68;;;7.10;99.90;;;;;;5076692;28;20230;-86
2021/03/23 01:20:25;;;;;;;17.00;10.35;;;7.10;99.90;;;;;;5076802;28;20269;-84
2021/03/23 01:22:53;;;;;;;16.40;9.98;;;7.20;99.90;;;;;;5085337;28;20269;-82
2021/03/23 01:25:20;;;;;;;15.68;9.23;;;7.20;99.90;;;;;;5092964;28;20206;-84
2021/03/23 01:27:49;;;;;;;15.80;9.98;;;7.10;99.90;;;;;;5080776;28;20305;-84
2021/03/23 01:30:18;;;;;;;19.65;10.90;;;7.30;99.90;;;;;;5076274;28;20206;-86
2021/03/23 01:32:44;;;;;;;21.67;10.18;;;7.20;99.90;;;;;;5077134;28;20288;-86
2021/03/23 01:35:12;;;;;;;15.55;8.63;;;7.20;99.90;;;;;;5088658;28;20245;-84
2021/03/23 01:37:38;;;;;;;20.63;10.43;;;7.10;99.90;;;;;;5095226;28;20189;-83
2021/03/23 01:40:07;;;;;;;17.67;10.82;;;7.10;99.90;;;;;;5089737;28;20266;-85
2021/03/23 01:42:42;;;;;;;23.10;10.93;;;6.90;99.90;;;;;;5075848;28;20672;-85
2021/03/23 01:45:16;;;;;;;20.55;12.02;;;7.00;99.90;;;;;;5074132;28;20288;-83
2021/03/23 01:47:43;;;;;;;18.02;9.75;;;7.00;99.90;;;;;;5076689;28;20232;-83
2021/03/23 01:50:10;;;;;;;16.27;9.55;;;7.00;99.90;;;;;;5080704;28;20233;-84
2021/03/23 01:52:36;;;;;;;18.55;10.30;;;6.90;99.90;;;;;;5075679;28;20614;-83
2021/03/23 01:55:08;;;;;;;22.63;10.05;;;6.90;99.90;;;;;;5075990;28;20308;-84
2021/03/23 01:57:38;;;;;;;19.23;10.35;;;7.20;99.90;;;;;;5076459;28;20247;-83
2021/03/23 02:00:08;;;;;;;24.25;10.77;;;6.90;99.90;;;;;;5075584;28;20629;-84
2021/03/23 02:02:34;;;;;;;18.98;10.68;;;7.00;99.90;;;;;;5076315;28;20201;-83
2021/03/23 02:05:01;;;;;;;21.45;12.13;;;6.90;99.90;;;;;;5074446;28;20567;-84
2021/03/23 02:07:27;;;;;;;26.35;12.50;;;7.10;99.90;;;;;;5075506;28;20206;-85
2021/03/23 02:09:56;;;;;;;25.00;11.73;;;7.00;99.90;;;;;;5077487;28;20281;-83
2021/03/23 02:12:27;;;;;;;19.83;11.80;;;7.00;99.90;;;;;;5077644;28;20209;-84
2021/03/23 02:14:54;;;;;;;21.45;12.20;;;6.90;99.90;;;;;;5075937;28;20330;-82
2021/03/23 02:17:22;;;;;;;22.35;12.63;;;6.90;99.90;;;;;;5076648;28;20218;-85
2021/03/23 02:19:50;;;;;;;22.55;13.57;;;7.30;99.90;;;;;;5075550;28;20297;-83
2021/03/23 02:22:26;;;;;;;24.95;13.35;;;7.10;99.90;;;;;;5074598;28;20281;-84
2021/03/23 02:24:52;;;;;;;27.58;13.40;;;7.10;99.90;;;;;;5075759;28;20208;-84
2021/03/23 02:27:21;;;;;;;20.42;12.07;;;7.00;99.90;;;;;;5078111;28;20214;-83
2021/03/23 02:29:49;;;;;;;20.85;12.32;;;7.30;99.90;;;;;;5078680;28;20766;-84
2021/03/23 02:32:15;;;;;;;21.05;11.85;;;7.30;99.90;;;;;;5078627;28;20221;-84
2021/03/23 02:34:41;;;;;;;28.17;13.27;;;7.20;99.90;;;;;;5079535;28;20617;-84
2021/03/23 02:37:09;;;;;;;23.77;13.65;;;7.10;99.90;;;;;;5079485;28;20691;-84
2021/03/23 02:39:37;;;;;;;25.67;14.30;;;7.10;99.90;;;;;;5079147;28;20257;-84
2021/03/23 02:42:04;;;;;;;26.60;15.43;;;7.00;99.90;;;;;;5080190;28;20201;-84
2021/03/23 02:44:38;;;;;;;27.30;14.55;;;7.10;99.90;;;;;;5078937;28;20290;-84
2021/03/23 02:47:05;;;;;;;27.17;15.32;;;7.00;99.90;;;;;;5078887;28;20339;-84
2021/03/23 02:49:32;;;;;;;27.75;16.67;;;7.00;99.90;;;;;;5077639;28;20302;-84
2021/03/23 02:51:58;;;;;;;29.33;15.52;;;7.00;99.90;;;;;;5078613;28;20301;-84
2021/03/23 02:54:24;;;;;;;29.10;15.60;;;7.20;99.90;;;;;;5078832;28;20256;-83
2021/03/23 02:56:52;;;;;;;27.10;15.30;;;7.00;99.90;;;;;;5076663;28;20304;-84
2021/03/23 02:59:18;;;;;;;27.65;17.65;;;7.10;99.90;;;;;;5068804;28;20260;-85
2021/03/23 03:01:44;;;;;;;28.27;16.50;;;7.20;99.90;;;;;;5078144;28;20202;-84
2021/03/23 03:04:11;;;;;;;24.77;15.35;;;7.10;99.90;;;;;;5063879;28;20209;-85
2021/03/23 03:06:37;;;;;;;28.70;15.15;;;7.40;99.90;;;;;;5063475;28;20230;-85
2021/03/23 03:09:04;;;;;;;31.13;15.30;;;7.20;99.90;;;;;;5078472;28;20245;-86
2021/03/23 03:11:31;;;;;;;26.30;16.33;;;7.40;99.90;;;;;;5081268;28;20422;-85
2021/03/23 03:13:58;;;;;;;27.75;16.25;;;7.20;99.90;;;;;;5079625;28;20300;-83
2021/03/23 03:16:24;;;;;;;30.45;17.65;;;7.10;99.90;;;;;;5061420;28;20313;-83
2021/03/23 03:18:51;;;;;;;30.45;17.00;;;7.00;99.90;;;;;;5081514;28;20285;-84
2021/03/23 03:21:18;;;;;;;31.30;15.27;;;7.20;99.90;;;;;;5085103;28;20225;-81
2021/03/23 03:23:44;;;;;;;28.13;17.10;;;7.10;99.90;;;;;;5096930;28;20206;-84
2021/03/23 03:26:10;;;;;;;25.98;15.98;;;7.20;99.90;;;;;;5089727;28;20241;-85
2021/03/23 03:28:37;;;;;;;32.65;17.30;;;7.00;99.90;;;;;;5079129;28;20269;-85
2021/03/23 03:31:05;;;;;;;31.17;16.17;;;7.00;99.90;;;;;;5079076;28;20233;-85
2021/03/23 03:33:31;;;;;;;29.20;15.38;;;7.00;99.90;;;;;;5079693;28;20293;-85
2021/03/23 03:35:58;;;;;;;26.92;16.73;;;7.20;99.90;;;;;;5081645;28;20949;-84
2021/03/23 03:38:26;;;;;;;26.45;16.17;;;7.00;99.90;;;;;;5089686;28;20255;-83
2021/03/23 03:40:55;;;;;;;24.73;14.70;;;7.50;99.90;;;;;;5095236;28;20205;-85
2021/03/23 03:43:23;;;;;;;26.60;15.82;;;7.30;99.90;;;;;;5082422;28;20244;-84
2021/03/23 03:45:50;;;;;;;24.60;15.38;;;7.30;99.90;;;;;;5096673;28;20195;-83
2021/03/23 03:48:17;;;;;;;27.23;15.77;;;7.30;99.90;;;;;;5096571;28;20268;-83
2021/03/23 03:50:46;;;;;;;25.48;14.52;;;7.20;99.90;;;;;;5082252;28;20284;-86
2021/03/23 03:53:13;;;;;;;28.73;15.65;;;7.50;99.90;;;;;;5078352;28;20657;-86
2021/03/23 03:55:42;;;;;;;28.17;15.45;;;7.20;99.90;;;;;;5080605;28;20218;-85
2021/03/23 03:58:09;;;;;;;30.85;16.00;;;7.40;99.90;;;;;;5079799;28;20214;-86
2021/03/23 04:00:36;;;;;;;31.27;16.60;;;7.20;99.90;;;;;;5077278;28;20249;-86
2021/03/23 04:03:05;;;;;;;33.80;17.33;;;7.10;99.90;;;;;;5078221;28;20221;-86
2021/03/23 04:05:35;;;;;;;28.27;17.25;;;7.40;99.90;;;;;;5078288;28;20289;-85
2021/03/23 04:08:01;;;;;;;30.67;16.60;;;7.30;99.90;;;;;;5078198;28;20241;-86
2021/03/23 04:10:28;;;;;;;23.48;15.05;;;7.30;99.90;;;;;;5079083;28;20769;-85
2021/03/23 04:12:55;;;;;;;29.48;16.42;;;7.10;99.90;;;;;;5078193;28;20225;-84
2021/03/23 04:15:23;;;;;;;32.15;18.02;;;7.20;99.90;;;;;;5079959;28;20317;-86
2021/03/23 04:17:50;;;;;;;34.25;17.52;;;7.20;99.90;;;;;;5078696;28;20784;-86
2021/03/23 04:20:18;;;;;;;30.83;16.73;;;7.00;99.90;;;;;;5079639;28;20320;-85
2021/03/23 04:22:45;;;;;;;29.73;16.73;;;7.00;99.90;;;;;;5079159;28;20632;-86
2021/03/23 04:25:14;;;;;;;34.72;16.55;;;6.90;99.90;;;;;;5078603;28;20313;-86
2021/03/23 04:27:40;;;;;;;31.00;17.05;;;7.10;99.90;;;;;;5076285;28;20213;-83
2021/03/23 04:30:08;;;;;;;31.90;16.80;;;6.90;99.90;;;;;;5082279;28;20220;-85
2021/03/23 04:32:34;;;;;;;32.55;18.55;;;6.90;99.90;;;;;;5078023;28;20669;-86
2021/03/23 04:35:01;;;;;;;29.27;16.65;;;7.00;99.90;;;;;;5078243;28;20206;-86
2021/03/23 04:37:27;;;;;;;28.23;15.93;;;6.80;99.90;;;;;;5078042;28;20228;-84
2021/03/23 04:39:55;;;;;;;29.70;16.40;;;7.00;99.90;;;;;;5088457;28;20236;-86
2021/03/23 04:42:21;;;;;;;32.10;16.85;;;6.80;99.90;;;;;;5077864;28;20283;-85
2021/03/23 04:44:47;;;;;;;29.35;16.35;;;6.90;99.90;;;;;;5080163;28;20237;-84
2021/03/23 04:47:14;;;;;;;30.00;16.20;;;7.30;99.90;;;;;;5078549;28;20214;-85
2021/03/23 04:49:41;;;;;;;31.67;16.88;;;7.30;99.90;;;;;;5076512;28;20324;-85
2021/03/23 04:52:08;;;;;;;30.88;15.75;;;7.10;99.90;;;;;;5077682;28;20301;-85
2021/03/23 04:54:34;;;;;;;27.88;16.95;;;7.10;99.90;;;;;;5077343;28;20220;-85
2021/03/23 04:57:02;;;;;;;29.80;16.60;;;7.10;99.90;;;;;;5077332;28;20222;-85
2021/03/23 04:59:28;;;;;;;27.40;16.25;;;7.10;99.90;;;;;;5077314;28;20222;-86
2021/03/23 05:01:54;;;;;;;31.65;16.02;;;7.30;99.90;;;;;;5077603;28;20206;-86
2021/03/23 05:04:21;;;;;;;31.80;16.70;;;7.30;99.90;;;;;;5078128;28;20348;-85
2021/03/23 05:06:48;;;;;;;32.20;16.42;;;7.30;99.90;;;;;;5084444;28;20262;-84
2021/03/23 05:09:14;;;;;;;32.60;17.73;;;7.10;99.90;;;;;;5094375;28;20229;-83
2021/03/23 05:11:41;;;;;;;32.85;19.02;;;7.00;99.90;;;;;;5087049;28;20197;-85
2021/03/23 05:14:08;;;;;;;31.73;16.83;;;7.00;99.90;;;;;;5078406;28;20245;-84
2021/03/23 05:16:35;;;;;;;27.80;16.00;;;7.10;99.90;;;;;;5079716;28;20536;-85
2021/03/23 05:19:02;;;;;;;30.88;17.17;;;6.70;99.90;;;;;;5079244;28;20227;-82
2021/03/23 05:21:29;;;;;;;34.13;17.30;;;6.90;99.90;;;;;;5089446;28;20214;-83
2021/03/23 05:23:57;;;;;;;38.08;17.25;;;6.90;99.90;;;;;;5091674;28;20205;-85
2021/03/23 05:26:23;;;;;;;31.63;17.02;;;6.80;99.90;;;;;;5080698;28;20225;-85
2021/03/23 05:28:50;;;;;;;33.38;17.35;;;6.90;99.90;;;;;;5081118;28;20225;-85
2021/03/23 05:31:17;;;;;;;30.20;17.67;;;6.80;99.90;;;;;;5079366;28;20402;-85
2021/03/23 05:33:44;;;;;;;35.10;18.50;;;7.00;99.90;;;;;;5079257;28;20202;-85
2021/03/23 05:36:11;;;;;;;38.35;18.52;;;7.10;99.90;;;;;;5084261;28;20362;-84
2021/03/23 05:38:37;;;;;;;34.38;18.63;;;6.80;99.90;;;;;;5077339;28;20217;-83
2021/03/23 05:41:06;;;;;;;33.10;18.35;;;6.90;99.90;;;;;;5076952;28;20296;-83
2021/03/23 05:44:02;;;;;;;31.35;17.90;;;6.90;99.90;;;;;;5079090;28;20287;-82
2021/03/23 05:46:33;;;;;;;34.05;17.83;;;6.80;99.90;;;;;;5077552;28;20232;-82
2021/03/23 05:49:18;;;;;;;32.70;17.58;;;7.00;99.90;;;;;;5078872;28;20221;-83
2021/03/23 05:51:49;;;;;;;34.03;16.80;;;7.00;99.90;;;;;;5077972;28;20201;-84
2021/03/23 05:54:20;;;;;;;34.50;17.60;;;7.20;99.90;;;;;;5076200;28;20190;-83
2021/03/23 05:56:51;;;;;;;33.22;17.23;;;7.20;99.90;;;;;;5075695;28;20275;-83
2021/03/23 05:59:27;;;;;;;34.38;16.70;;;7.10;99.90;;;;;;5074573;28;20233;-82
2021/03/23 06:02:05;;;;;;;31.42;18.23;;;7.00;99.90;;;;;;5075155;28;20277;-83
2021/03/23 06:04:43;;;;;;;30.65;17.30;;;7.00;99.90;;;;;;5074909;28;20248;-82
2021/03/23 06:07:13;;;;;;;28.38;15.93;;;7.10;99.90;;;;;;5075611;28;20297;-81
2021/03/23 06:09:41;;;;;;;27.92;16.00;;;7.00;99.90;;;;;;5076653;28;20217;-82
2021/03/23 06:12:28;;;;;;;37.22;17.95;;;7.10;99.90;;;;;;5074127;28;20289;-79
2021/03/23 06:15:09;;;;;;;31.05;18.13;;;7.10;99.90;;;;;;5072625;28;20238;-78
2021/03/23 06:17:46;;;;;;;32.13;17.92;;;7.30;99.90;;;;;;5074007;28;20225;-78
2021/03/23 06:20:41;;;;;;;36.38;18.23;;;7.20;99.90;;;;;;5076356;28;20225;-84
2021/03/23 06:23:34;;;;;;;29.90;16.90;;;7.30;99.90;;;;;;5076473;28;20292;-85
2021/03/23 06:26:05;;;;;;;31.75;15.48;;;7.40;99.90;;;;;;5076339;28;20185;-85
2021/03/23 06:28:53;;;;;;;31.38;17.52;;;7.60;99.90;;;;;;5077231;28;20231;-85
2021/03/23 06:31:41;;;;;;;29.95;17.10;;;7.40;99.90;;;;;;5079075;28;20212;-85
2021/03/23 06:34:15;;;;;;;29.75;15.23;;;7.60;99.90;;;;;;5077423;28;20294;-84
2021/03/23 06:36:42;;;;;;;33.63;18.08;;;7.40;99.90;;;;;;5088489;28;20208;-83
2021/03/23 06:39:09;;;;;;;32.88;16.63;;;7.30;99.90;;;;;;5093978;28;20209;-83
2021/03/23 06:41:36;;;;;;;33.67;16.70;;;7.20;99.90;;;;;;5082362;28;20799;-85
2021/03/23 06:44:21;;;;;;;32.33;16.55;;;7.10;99.90;;;;;;5077027;28;20396;-85
2021/03/23 06:46:48;;;;;;;33.00;18.02;;;7.00;99.90;;;;;;5079753;28;20229;-83
2021/03/23 06:49:27;;;;;;;30.55;18.25;;;6.90;99.90;;;;;;5076829;28;20302;-84
2021/03/23 06:52:01;;;;;;;29.27;17.13;;;7.10;99.90;;;;;;5078576;28;20210;-80
2021/03/23 06:54:29;;;;;;;34.15;17.98;;;7.20;99.90;;;;;;5080368;28;20240;-79
2021/03/23 06:57:02;;;;;;;29.02;16.40;;;7.30;99.90;;;;;;5079461;28;20427;-83
2021/03/23 06:59:30;;;;;;;30.83;19.08;;;7.40;99.90;;;;;;5087366;28;20226;-83
2021/03/23 07:02:02;;;;;;;32.33;17.75;;;7.60;99.90;;;;;;5089518;28;20251;-82
2021/03/23 07:04:34;;;;;;;32.88;19.38;;;7.40;99.90;;;;;;5083182;28;20316;-86
2021/03/23 07:07:13;;;;;;;31.67;16.70;;;7.30;99.90;;;;;;5080269;28;20248;-84
2021/03/23 07:09:48;;;;;;;32.33;18.15;;;7.60;99.90;;;;;;5079430;28;20297;-85
2021/03/23 07:12:15;;;;;;;36.05;20.17;;;7.50;99.90;;;;;;5079656;28;20292;-82
2021/03/23 07:14:43;;;;;;;39.85;20.20;;;7.40;99.90;;;;;;5080171;28;20209;-84
2021/03/23 07:17:26;;;;;;;31.27;16.77;;;7.40;99.90;;;;;;5078306;28;20225;-84
2021/03/23 07:19:57;;;;;;;29.85;16.30;;;7.40;99.90;;;;;;5078937;28;20279;-85
2021/03/23 07:22:35;;;;;;;32.30;18.10;;;7.60;99.90;;;;;;5078870;28;20217;-84
2021/03/23 07:25:06;;;;;;;30.92;17.05;;;7.20;99.90;;;;;;5079444;28;20275;-84
2021/03/23 07:27:32;;;;;;;33.65;19.80;;;7.30;99.90;;;;;;5078376;28;20263;-84
2021/03/23 07:30:26;;;;;;;30.60;17.10;;;7.50;99.90;;;;;;5077726;28;20210;-84
2021/03/23 07:32:57;;;;;;;30.67;18.63;;;7.60;99.90;;;;;;5076989;28;20205;-85
2021/03/23 07:35:27;;;;;;;30.00;18.60;;;7.60;99.90;;;;;;5059543;28;20229;-84
2021/03/23 07:37:58;;;;;;;28.65;16.60;;;7.80;99.90;;;;;;5057263;28;20262;-83
2021/03/23 07:40:32;;;;;;;39.33;18.95;;;7.90;99.90;;;;;;5079103;28;20197;-84
2021/03/23 07:43:06;;;;;;;35.60;20.25;;;7.90;99.90;;;;;;5094311;22;20236;-85
2021/03/23 07:45:46;;;;;;;28.58;16.70;;;7.90;99.90;;;;;;5067129;28;20201;-85
2021/03/23 07:48:19;;;;;;;36.60;19.90;;;7.40;99.90;;;;;;5074078;28;20210;-84
2021/03/23 07:50:52;;;;;;;31.50;18.73;;;7.80;99.90;;;;;;5078905;28;20194;-84
2021/03/23 07:53:25;;;;;;;40.83;19.80;;;7.70;99.90;;;;;;5078674;28;20238;-84
2021/03/23 07:55:52;;;;;;;34.05;19.50;;;7.90;99.90;;;;;;5073308;28;20237;-83
2021/03/23 07:58:39;;;;;;;26.65;15.80;;;7.80;99.90;;;;;;5070794;28;20207;-84
2021/03/23 08:01:44;;;;;;;36.90;17.58;;;8.10;99.90;;;;;;5074330;28;20442;-83
2021/03/23 08:04:17;;;;;;;33.53;17.00;;;8.00;99.90;;;;;;5072111;28;20297;-85
2021/03/23 08:07:04;;;;;;;31.10;17.95;;;7.70;99.90;;;;;;5071015;28;20311;-84
2021/03/23 08:09:59;;;;;;;28.02;17.38;;;7.90;99.90;;;;;;5063971;28;20217;-85
2021/03/23 08:12:56;;;;;;;30.42;17.90;;;7.90;99.90;;;;;;5068468;28;20230;-85
2021/03/23 08:16:01;;;;;;;45.42;26.33;;;7.90;99.90;;;;;;5070954;28;20211;-84
2021/03/23 08:19:03;;;;;;;36.85;19.70;;;8.00;99.90;;;;;;5050371;28;20234;-86
2021/03/23 08:21:50;;;;;;;33.65;18.00;;;7.90;99.90;;;;;;5061296;28;20198;-85
2021/03/23 08:24:30;;;;;;;42.13;15.48;;;8.00;99.90;;;;;;5075631;28;20242;-85
2021/03/23 08:27:32;;;;;;;27.58;15.68;;;8.40;99.90;;;;;;5069366;28;20198;-83
2021/03/23 08:30:17;;;;;;;31.13;16.17;;;8.00;99.90;;;;;;5046863;28;20241;-83
2021/03/23 08:32:49;;;;;;;31.60;16.40;;;8.10;99.90;;;;;;5055852;28;20655;-83
2021/03/23 08:35:30;;;;;;;25.10;14.65;;;8.30;99.90;;;;;;5064609;28;20593;-82
2021/03/23 08:38:26;;;;;;;27.30;15.23;;;8.70;99.90;;;;;;5065730;28;20198;-81
2021/03/23 08:41:00;;;;;;;30.60;16.90;;;8.80;99.90;;;;;;5067087;28;20239;-79
2021/03/23 08:43:35;;;;;;;28.70;15.40;;;8.80;99.90;;;;;;5064672;28;20227;-83
2021/03/23 08:46:06;;;;;;;30.90;16.63;;;8.40;99.90;;;;;;5065589;28;20209;-82
2021/03/23 08:48:44;;;;;;;24.92;14.75;;;8.70;99.90;;;;;;5066958;28;20202;-81
2021/03/23 08:51:14;;;;;;;25.85;15.95;;;8.60;99.90;;;;;;5063242;28;20207;-84
2021/03/23 08:54:00;;;;;;;28.20;14.93;;;8.60;99.90;;;;;;5058473;28;20287;-83
2021/03/23 08:56:58;;;;;;;24.73;13.97;;;8.80;99.90;;;;;;5050543;28;20241;-85
2021/03/23 08:59:50;;;;;;;20.30;12.60;;;9.00;99.90;;;;;;5051069;28;20656;-81
2021/03/23 09:02:40;;;;;;;25.50;15.83;;;9.20;99.90;;;;;;5061050;28;20448;-82
2021/03/23 09:05:36;;;;;;;25.67;13.80;;;9.20;99.90;;;;;;5067086;28;20444;-80
2021/03/23 09:08:39;;;;;;;29.97;14.27;;;9.40;99.90;;;;;;5049689;28;20473;-84
2021/03/23 09:11:12;;;;;;;21.30;12.80;;;9.40;99.90;;;;;;5047229;28;20442;-83
2021/03/23 09:14:14;;;;;;;25.40;13.63;;;9.10;99.90;;;;;;5040649;28;20486;-80
2021/03/23 09:16:49;;;;;;;21.37;11.60;;;9.10;99.90;;;;;;5068721;28;21061;-82
2021/03/23 09:19:41;;;;;;;20.53;11.43;;;8.90;99.90;;;;;;5066337;28;20540;-80
2021/03/23 09:22:26;;;;;;;22.30;12.73;;;9.20;99.90;;;;;;5061638;28;20484;-79
2021/03/23 09:25:29;;;;;;;24.90;14.40;;;9.50;99.90;;;;;;5060508;28;20484;-83
2021/03/23 09:28:04;;;;;;;19.57;12.30;;;9.50;99.90;;;;;;5055421;28;20627;-83
2021/03/23 09:30:51;;;;;;;23.23;12.30;;;9.60;99.90;;;;;;5058705;28;20502;-79
2021/03/23 09:33:37;;;;;;;17.30;8.27;;;9.50;99.90;;;;;;5053409;28;20477;-81
2021/03/23 09:36:31;;;;;;;17.50;8.73;;;9.30;99.90;;;;;;5045667;28;20480;-81
2021/03/23 09:39:33;;;;;;;15.23;8.80;;;9.10;99.90;;;;;;5040871;28;20457;-80
2021/03/23 09:42:26;;;;;;;15.30;8.23;;;9.20;99.90;;;;;;5061572;28;20476;-79
2021/03/23 09:45:22;;;;;;;18.87;8.60;;;9.30;99.90;;;;;;5046615;28;20554;-82
2021/03/23 09:48:25;;;;;;;16.33;8.83;;;9.50;99.90;;;;;;5039546;28;20405;-80
2021/03/23 09:51:01;;;;;;;16.93;10.47;;;9.70;99.90;;;;;;5042369;28;20456;-82
2021/03/23 09:53:35;;;;;;;14.60;9.03;;;9.80;99.60;;;;;;5042061;28;20469;-79
2021/03/23 09:56:05;;;;;;;11.40;7.17;;;10.10;99.00;;;;;;5059159;28;20468;-83
2021/03/23 09:58:32;;;;;;;12.20;7.80;;;10.10;98.50;;;;;;5060696;28;20481;-81
2021/03/23 10:01:15;;;;;;;15.33;7.07;;;10.00;97.20;;;;;;5052195;28;20458;-83
2021/03/23 10:03:43;;;;;;;15.87;8.80;;;9.90;98.00;;;;;;5056540;28;20454;-84
2021/03/23 10:06:16;;;;;;;14.97;7.23;;;9.40;98.20;;;;;;5067280;28;20447;-81
2021/03/23 10:08:55;;;;;;;13.23;6.07;;;9.60;98.10;;;;;;5071456;28;20411;-82
2021/03/23 10:11:24;;;;;;;13.20;7.20;;;9.50;98.00;;;;;;5073402;28;20467;-83
2021/03/23 10:13:54;;;;;;;13.93;7.40;;;9.00;98.20;;;;;;5071458;28;20233;-81
2021/03/23 10:16:28;;;;;;;10.83;6.83;;;9.20;98.40;;;;;;5063977;28;20223;-82
2021/03/23 10:18:59;;;;;;;20.47;8.23;;;9.40;98.40;;;;;;5056320;28;20446;-82
2021/03/23 10:21:29;;;;;;;14.23;8.57;;;9.50;98.10;;;;;;5056620;28;20421;-83
2021/03/23 10:23:58;;;;;;;14.00;7.07;;;9.50;98.70;;;;;;5057113;28;20237;-84
2021/03/23 10:26:38;;;;;;;14.90;7.30;;;9.50;98.10;;;;;;5056449;28;20456;-82
2021/03/23 10:29:18;;;;;;;12.10;7.90;;;9.50;98.00;;;;;;5058437;28;20442;-82
2021/03/23 10:31:51;;;;;;;13.27;7.60;;;9.60;97.90;;;;;;5056616;28;20210;-84
2021/03/23 10:34:20;;;;;;;12.70;6.30;;;9.50;97.20;;;;;;5047539;28;20511;-85
2021/03/23 10:36:50;;;;;;;12.33;6.00;;;9.60;97.40;;;;;;5057164;28;20844;-85
2021/03/23 10:39:36;;;;;;;11.07;5.97;;;9.20;97.00;;;;;;5057897;28;20855;-84
2021/03/23 10:42:16;;;;;;;11.60;6.73;;;9.50;96.90;;;;;;5059206;28;20550;-82
2021/03/23 10:44:43;;;;;;;12.57;7.17;;;9.70;96.70;;;;;;5059799;28;20455;-83
2021/03/23 10:47:17;;;;;;;11.50;6.33;;;9.60;96.90;;;;;;5072586;28;20440;-84
2021/03/23 10:49:43;;;;;;;10.07;6.13;;;9.70;96.70;;;;;;5072098;28;20457;-82
2021/03/23 10:52:27;;;;;;;11.43;4.97;;;9.60;96.50;;;;;;5070042;28;20439;-83
2021/03/23 10:55:19;;;;;;;9.33;6.10;;;9.80;95.90;;;;;;5071352;28;20460;-86
2021/03/23 10:57:46;;;;;;;10.60;6.43;;;9.90;95.80;;;;;;5076018;28;20441;-81
2021/03/23 11:00:22;;;;;;;8.67;5.63;;;9.80;96.00;;;;;;5069747;28;21039;-82
2021/03/23 11:02:49;;;;;;;13.37;7.87;;;9.90;95.90;;;;;;5061752;28;20472;-84
2021/03/23 11:05:17;;;;;;;20.00;8.20;;;9.50;96.10;;;;;;5060198;28;20446;-85
2021/03/23 11:07:59;;;;;;;19.10;9.47;;;9.80;96.70;;;;;;5064249;28;20497;-84
2021/03/23 11:10:28;;;;;;;10.20;5.80;;;9.60;97.00;;;;;;5058710;28;20507;-84
2021/03/23 11:12:55;;;;;;;15.03;5.97;;;9.90;95.90;;;;;;5041037;28;20523;-84
2021/03/23 11:15:22;;;;;;;10.67;5.43;;;9.90;95.50;;;;;;5046301;28;20789;-82
2021/03/23 11:17:50;;;;;;;11.83;5.73;;;9.90;95.50;;;;;;5060873;28;20828;-84
2021/03/23 11:20:27;;;;;;;10.27;5.70;;;9.90;95.40;;;;;;5061950;28;20544;-85
2021/03/23 11:22:56;;;;;;;9.87;5.57;;;10.00;94.70;;;;;;5060131;28;21000;-85
2021/03/23 11:25:26;;;;;;;11.10;6.33;;;10.10;94.70;;;;;;5059561;28;20599;-85
2021/03/23 11:27:55;;;;;;;8.60;5.73;;;9.90;95.10;;;;;;5058481;28;20479;-84
2021/03/23 11:30:23;;;;;;;9.20;5.53;;;9.80;95.30;;;;;;5049544;28;20461;-85
2021/03/23 11:32:50;;;;;;;13.87;5.83;;;9.40;95.40;;;;;;5043175;28;20469;-86
2021/03/23 11:35:18;;;;;;;11.43;6.53;;;9.80;95.50;;;;;;5072485;28;20445;-83
2021/03/23 11:37:45;;;;;;;10.30;6.20;;;9.90;95.20;;;;;;5070794;28;20989;-81
2021/03/23 11:40:12;;;;;;;9.70;5.77;;;10.00;94.70;;;;;;5063868;28;20437;-84
2021/03/23 11:42:43;;;;;;;8.10;5.27;;;10.10;94.60;;;;;;5060865;28;20488;-83
2021/03/23 11:45:19;;;;;;;12.70;6.40;;;10.20;94.30;;;;;;5059929;28;20471;-77
2021/03/23 11:47:55;;;;;;;13.63;6.80;;;10.10;94.30;;;;;;5045428;28;20449;-79
2021/03/23 11:50:24;;;;;;;10.90;6.97;;;10.40;94.00;;;;;;5055707;28;20483;-77
2021/03/23 11:52:53;;;;;;;10.23;7.00;;;10.20;94.00;;;;;;5056176;28;20480;-81
2021/03/23 11:55:23;;;;;;;13.20;7.83;;;10.10;94.80;;;;;;5058302;28;20460;-83
2021/03/23 11:57:51;;;;;;;13.20;7.93;;;10.10;95.10;;;;;;5058994;28;20629;-82
2021/03/23 12:00:20;;;;;;;17.20;8.23;;;9.80;96.20;;;;;;5060391;28;20473;-82
2021/03/23 12:02:48;;;;;;;14.07;6.90;;;9.70;96.70;;;;;;5055787;28;20505;-84
2021/03/23 12:05:16;;;;;;;16.23;9.00;;;9.40;96.70;;;;;;5039311;28;20238;-85
2021/03/23 12:08:00;;;;;;;12.00;6.93;;;9.50;97.00;;;;;;5062415;28;20480;-85
2021/03/23 12:10:31;;;;;;;13.93;8.47;;;9.80;97.00;;;;;;5058874;28;20285;-80
2021/03/23 12:13:05;;;;;;;17.03;8.73;;;9.80;96.90;;;;;;5059439;28;20477;-79
2021/03/23 12:15:37;;;;;;;13.03;7.83;;;10.00;95.90;;;;;;5059190;28;20884;-80
2021/03/23 12:18:08;;;;;;;14.37;8.20;;;9.80;96.20;;;;;;5058467;28;20445;-79
2021/03/23 12:20:37;;;;;;;23.93;13.83;;;9.80;96.50;;;;;;5043340;28;20507;-81
2021/03/23 12:23:17;;;;;;;14.03;8.30;;;9.80;96.50;;;;;;5055889;28;20541;-85
2021/03/23 12:25:44;;;;;;;14.73;7.87;;;10.00;95.90;;;;;;5059475;28;20441;-84
2021/03/23 12:28:10;;;;;;;14.57;8.63;;;9.80;96.80;;;;;;5059998;28;20455;-84
2021/03/23 12:30:37;;;;;;;14.83;9.13;;;9.70;96.80;;;;;;5063184;28;20202;-86
2021/03/23 12:33:03;;;;;;;15.90;9.07;;;9.80;96.70;;;;;;5064073;28;20469;-86
2021/03/23 12:35:30;;;;;;;14.63;7.17;;;10.00;95.80;;;;;;5070019;28;20433;-85
2021/03/23 12:38:00;;;;;;;14.30;8.47;;;10.10;95.50;;;;;;5065957;28;20480;-83
2021/03/23 12:40:28;;;;;;;16.00;9.27;;;10.00;95.50;;;;;;5069662;28;20956;-84
2021/03/23 12:42:55;;;;;;;16.60;8.27;;;9.60;96.10;;;;;;5069210;28;20484;-83
2021/03/23 12:45:25;;;;;;;15.20;8.70;;;9.90;96.30;;;;;;5060032;28;20431;-84
2021/03/23 12:47:51;;;;;;;17.37;8.83;;;10.10;95.90;;;;;;5059915;28;20451;-83
2021/03/23 12:50:18;;;;;;;14.13;8.57;;;10.20;95.40;;;;;;5061206;28;20415;-85
2021/03/23 12:52:45;;;;;;;13.40;8.10;;;9.70;95.90;;;;;;5058976;28;20497;-84
2021/03/23 12:55:19;;;;;;;15.17;8.90;;;10.10;95.30;;;;;;5059118;28;20450;-83
2021/03/23 12:57:48;;;;;;;19.37;8.87;;;10.00;95.40;;;;;;5059231;28;20543;-85
2021/03/23 13:00:24;;;;;;;16.80;9.23;;;10.10;95.70;;;;;;5058345;28;20451;-82
2021/03/23 13:02:51;;;;;;;14.47;7.53;;;9.70;95.90;;;;;;5061012;28;20529;-83
2021/03/23 13:05:17;;;;;;;14.80;8.67;;;10.10;95.40;;;;;;5062152;28;20428;-84
2021/03/23 13:07:44;;;;;;;15.23;8.80;;;10.10;95.20;;;;;;5059436;28;20441;-82